Latest Coastal Weather Observations for Nullarbor

IDS60701

Issued at 4:05 am CST Thursday 2 October 2014 (issued every 10 minutes, with the page automatically refreshed every 10 minutes)

About coastal observations | Map of coastal stations | Coastal observations for SA | Marine services | Other Formats
Station Details ID: 018106 Name: NULLARBOR Lat: -31.45 Lon: 130.90 Height: 64.0 m
Data from the previous 72 hours. | See also: Recent months at Nullarbor
Date/Time
CST
Temp

°C
Wind Pressure Rain
since 9am
mm
Weather Cloud Vis
km
Sea
Height
m
Swell
Dir
 
Speed
knots
Gust
knots
hPa Trend Height
m
Period
s
Dir
02/04:00am 9.5 E 7 8 1024.4 - 0.0 - - 7 - - - -
02/03:30am 10.3 E 8 9 1024.3 - 0.0 - - 7 - - - -
02/03:00am 10.4 E 7 8 1024.6 - 0.0 - - 7 - - - -
02/02:38am 10.7 ESE 8 9 1024.8 - 0.0 - - 7 - - - -
02/02:30am 10.6 ESE 8 9 1025.0 - 0.0 - - 8 - - - -
02/02:00am 11.1 ESE 8 9 1025.2 - 0.0 - - 9 - - - -
02/01:30am 11.6 ESE 8 10 1025.7 - 0.0 - - 9 - - - -
02/01:00am 11.8 ESE 9 10 1025.8 - 0.0 - - 10 - - - -
02/12:30am 12.6 ESE 9 12 1026.1 - 0.0 - - 9 - - - -
02/12:00am 13.0 ESE 10 13 1026.2 - 0.0 - - 10 - - - -
 
Date/Time
CST
Temp

°C
Wind Pressure Rain
since 9am
mm
Weather Cloud Vis
km
Sea
Height
m
Swell
Dir
 
Speed
knots
Gust
knots
hPa Trend Height
m
Period
s
Dir
01/11:30pm 13.3 ESE 12 16 1026.1 - 0.0 - - 10 - - - -
01/11:00pm 13.4 ESE 11 14 1026.4 - 0.0 - - 10 - - - -
01/10:30pm 13.8 ESE 13 17 1026.5 - 0.0 - - 10 - - - -
01/10:00pm 14.1 ESE 15 21 1026.5 - 0.0 - - 10 - - - -
01/09:30pm 14.0 ESE 14 19 1026.5 - 0.0 - - 10 - - - -
01/09:00pm 14.1 SE 14 18 1026.5 - 0.0 - - 10 - - - -
01/08:30pm 14.3 SE 15 19 1026.2 - 0.0 - - 10 - - - -
01/08:00pm 14.4 SE 15 18 1026.0 - 0.0 - - 10 - - - -
01/07:30pm 14.4 SE 14 19 1025.9 - 0.0 - - 10 - - - -
01/07:00pm 14.7 SE 16 20 1025.7 - 0.0 - - 10 - - - -
01/06:30pm 15.3 SE 19 23 1025.4 - 0.0 - - 10 - - - -
01/06:00pm 16.0 SE 19 26 1025.3 - 0.0 - - 10 - - - -
01/05:30pm 16.7 SE 19 25 1025.3 - 0.0 - - 10 - - - -
01/05:00pm 17.4 SE 19 24 1025.2 - 0.0 - - 10 - - - -
01/04:30pm 17.9 SE 19 24 1025.3 - 0.0 - - 10 - - - -
01/04:00pm 18.8 SE 17 23 1025.6 - 0.0 - - 10 - - - -
01/03:30pm 19.0 SE 17 23 1025.7 - 0.0 - - 10 - - - -
01/03:00pm 18.8 SE 17 23 1025.9 - 0.0 - - 10 - - - -
01/02:30pm 19.0 SSE 15 21 1026.3 - 0.0 - - 10 - - - -
01/02:00pm 18.8 SE 15 21 1026.7 - 0.0 - - 10 - - - -
01/01:30pm 19.5 SE 14 19 1027.2 - 0.0 - - 10 - - - -
01/01:00pm 19.0 SE 13 19 1027.5 - 0.0 - - 10 - - - -
01/12:30pm 19.9 SE 11 16 1028.0 - 0.0 - - 10 - - - -
01/12:00pm 19.3 ESE 13 18 1028.5 - 0.0 - Mostly clear 10 - - - -
01/11:30am 19.3 SE 14 20 1028.8 - 0.0 - Partly cloudy 10 - - - -
01/11:00am 18.3 ESE 14 20 1029.0 - 0.0 - - 10 - - - -
01/10:30am 18.5 ESE 12 17 1029.3 - 0.0 - Cloudy 10 - - - -
01/10:00am 17.8 ESE 12 17 1029.5 - 0.0 - Cloudy 10 - - - -
01/09:30am 16.6 ESE 15 23 1029.5 - 0.0 - Partly cloudy 10 - - - -
01/09:00am 17.4 ESE 14 19 1029.5 - 0.0 - Partly cloudy 10 - - - -
01/08:30am 16.4 SE 12 17 1029.2 - 0.0 - Partly cloudy 10 - - - -
01/08:00am 15.1 SSE 10 13 1028.8 - 0.0 - Partly cloudy 10 - - - -
01/07:30am 12.9 SE 6 7 1028.5 - 0.0 - - 10 - - - -
01/07:00am 10.0 SE 8 9 1028.2 - 0.0 - - 10 - - - -
01/06:30am 10.0 SE 8 9 1027.9 - 0.0 - Partly cloudy 10 - - - -
01/06:00am 9.5 SE 6 7 1027.7 - 0.0 - Mostly cloudy 10 - - - -
01/05:30am 9.0 SSE 7 8 1027.2 - 0.0 - - 10 - - - -
01/05:00am 9.0 SE 8 8 1026.6 - 0.0 - - 10 - - - -
01/04:30am 10.1 SSE 6 8 1026.5 - 0.0 - Partly cloudy 10 - - - -
01/04:00am 10.7 SSE 8 9 1026.3 - 0.0 - Partly cloudy 10 - - - -
01/03:30am 10.4 SSE 7 8 1026.2 - 0.0 - Partly cloudy 10 - - - -
01/03:00am 10.7 SE 7 8 1026.3 - 0.0 - Partly cloudy 10 - - - -
01/02:30am 10.8 SSE 7 8 1026.4 - 0.0 - - 10 - - - -
01/02:00am 12.3 SSE 7 10 1026.5 - 0.0 - Partly cloudy 10 - - - -
01/01:30am 11.2 SSE 7 8 1026.6 - 0.0 - Partly cloudy 10 - - - -
01/01:00am 11.0 SSE 6 7 1026.8 - 0.0 - Partly cloudy 10 - - - -
01/12:30am 11.5 SSE 7 7 1026.8 - 0.0 - Partly cloudy 10 - - - -
01/12:00am 11.2 SSE 8 9 1026.8 - 0.0 - Mostly clear 10 - - - -
 
Date/Time
CST
Temp

°C
Wind Pressure Rain
since 9am
mm
Weather Cloud Vis
km
Sea
Height
m
Swell
Dir
 
Speed
knots
Gust
knots
hPa Trend Height
m
Period
s
Dir
30/11:30pm 10.9 SSE 7 9 1026.7 - 0.0 - - 10 - - - -
30/11:00pm 10.9 SSE 7 8 1026.6 - 0.0 - - 10 - - - -
30/10:30pm 11.2 SSE 7 8 1026.5 - 0.0 - Partly cloudy 10 - - - -
30/10:00pm 11.4 S 7 8 1026.5 - 0.0 - - 10 - - - -
30/09:30pm 12.1 SSE 6 7 1026.4 - 0.0 - - 10 - - - -
30/09:00pm 13.2 S 7 8 1026.2 - 0.0 - - 10 - - - -
30/08:30pm 15.0 SSE 8 10 1025.8 - 0.0 - Partly cloudy 10 - - - -
30/08:00pm 15.2 S 7 9 1025.5 - 0.0 - Partly cloudy 10 - - - -
30/07:30pm 14.9 S 9 12 1025.1 - 0.0 - - 10 - - - -
30/07:00pm 15.5 S 12 15 1024.6 - 0.0 - - 10 - - - -
30/06:30pm 16.3 S 15 18 1024.3 - 0.0 - Partly cloudy 10 - - - -
30/06:00pm 17.1 S 15 20 1024.0 - 0.0 - Cloudy 10 - - - -
30/05:30pm 17.8 S 15 21 1023.6 - 0.0 - Partly cloudy 10 - - - -
30/05:00pm 18.3 S 17 21 1023.0 - 0.0 - Partly cloudy 10 - - - -
30/04:30pm 19.5 SSW 16 19 1022.7 - 0.0 - Partly cloudy 10 - - - -
30/04:00pm 20.5 SSW 14 21 1022.2 - 0.0 - Partly cloudy 10 - - - -
30/03:30pm 19.9 SSW 15 21 1022.0 - 0.0 - - 10 - - - -
30/03:00pm 20.6 SSW 16 21 1021.9 - 0.0 - Mostly clear 10 - - - -
30/02:30pm 20.0 SSW 16 23 1021.9 - 0.0 - Partly cloudy 10 - - - -
30/02:00pm 20.8 SSW 16 22 1022.0 - 0.0 - Partly cloudy 10 - - - -
30/01:30pm 20.7 SSW 15 21 1022.0 - 0.0 - - 10 - - - -
30/01:03pm 20.8 SSW 17 27 1022.0 - 0.0 - - 10 - - - -
30/01:00pm 21.2 SSW 16 22 1022.0 - 0.0 - - 10 - - - -
30/12:30pm 20.8 SSW 14 20 1022.1 - 0.0 - - 10 - - - -
30/12:00pm 20.6 SW 15 22 1022.1 - 0.0 - - 10 - - - -
30/11:30am 20.5 SW 15 22 1022.2 - 0.0 - - 10 - - - -
30/11:00am 20.4 SW 17 21 1022.2 - 0.0 - - 10 - - - -
30/10:30am 20.0 SW 15 19 1022.1 - 0.0 - - 10 - - - -
30/10:00am 19.6 SSW 15 21 1022.0 - 0.0 - - 10 - - - -
30/09:30am 20.1 SSW 16 21 1021.7 - 0.0 - - 10 - - - -
30/09:00am 19.8 SSW 15 19 1021.1 - 0.0 - - 10 - - - -
30/08:30am 18.7 SW 10 12 1020.6 - 0.0 - - 10 - - - -
30/08:00am 16.4 SW 6 8 1020.2 - 0.0 - - 10 - - - -
30/07:30am 13.2 WSW 4 5 1020.0 - 0.0 - - 10 - - - -
30/07:00am 11.5 SW 6 6 1019.5 - 0.0 - - 10 - - - -
30/06:30am 11.7 SSW 6 7 1019.0 - 0.0 - - 10 - - - -
30/06:00am 11.0 SSW 5 6 1018.5 - 0.0 - - 10 - - - -
30/05:30am 11.2 S 8 8 1018.0 - 0.0 - - 10 - - - -
30/05:00am 10.8 SSW 8 8 1017.6 - 0.0 - - 10 - - - -
30/04:30am 10.6 SSW 8 9 1017.6 - 0.0 - - 9 - - - -
30/04:00am 11.3 SSW 8 10 1017.2 - 0.0 - - 10 - - - -
30/03:58am 11.4 SSW 9 11 1017.2 - 0.0 - - 9 - - - -
30/03:30am 10.5 SW 10 11 1017.0 - 0.0 - - 0.7 - - - -
30/03:00am 11.9 WSW 8 9 1016.3 - 0.0 - Mostly clear 7 - - - -
30/02:52am 12.0 WSW 6 8 1016.3 - 0.0 - - 7 - - - -
30/02:30am 11.2 SW 6 7 1015.9 - 0.0 - - 9 - - - -
30/02:00am 11.5 SW 6 7 1016.2 - 0.0 - - 10 - - - -
30/01:30am 11.5 SW 7 10 1016.1 - 0.0 - - 10 - - - -
30/01:00am 11.5 WSW 3 6 1015.7 - 0.0 - - 10 - - - -
30/12:30am 12.4 WSW 3 4 1015.4 - 0.0 - - 10 - - - -
30/12:00am 13.2 CALM 0 0 1015.1 - 0.0 - Partly cloudy 10 - - - -
 
Date/Time
CST
Temp

°C
Wind Pressure Rain
since 9am
mm
Weather Cloud Vis
km
Sea
Height
m
Swell
Dir
 
Speed
knots
Gust
knots
hPa Trend Height
m
Period
s
Dir
29/11:30pm 12.8 E 2 4 1015.0 - 0.0 - - 10 - - - -
29/11:00pm 13.9 E 5 6 1015.0 - 0.0 - - 10 - - - -
29/10:30pm 12.7 E 7 8 1015.0 - 0.0 - - 8 - - - -
29/10:00pm 13.3 E 7 7 1015.0 - 0.0 - - 9 - - - -
29/09:30pm 13.9 E 6 7 1015.0 - 0.0 - - 9 - - - -
29/09:00pm 14.6 E 8 8 1014.7 - 0.0 - Mostly clear 10 - - - -
29/08:30pm 15.6 E 7 8 1014.5 - 0.0 - - 10 - - - -
29/08:00pm 16.1 E 8 9 1014.3 - 0.0 - - 10 - - - -
29/07:30pm 16.8 E 8 9 1014.1 - 0.0 - - 10 - - - -
29/07:00pm 18.4 ESE 8 11 1013.7 - 0.0 - - 10 - - - -
29/06:30pm 21.3 SE 10 14 1013.4 - 0.0 - - 10 - - - -
29/06:00pm 23.6 SE 11 15 1013.3 - 0.0 - - 10 - - - -
29/05:30pm 24.4 SSE 12 15 1013.1 - 0.0 - - 10 - - - -
29/05:00pm 24.7 SSE 13 18 1013.0 - 0.0 - - 10 - - - -
29/04:30pm 25.9 SSE 15 19 1012.7 - 0.0 - - 10 - - - -
29/04:00pm 28.1 W 10 16 1012.6 - 0.0 - - 10 - - - -
29/03:30pm 28.2 NNW 7 13 1012.8 - 0.0 - - 10 - - - -
29/03:00pm 27.6 WNW 8 13 1013.1 - 0.0 - - 10 - - - -
29/02:30pm 27.5 W 7 15 1013.5 - 0.0 - - 10 - - - -
29/02:00pm 27.1 WNW 9 15 1014.1 - 0.0 - - 10 - - - -
29/01:30pm 27.2 NNW 9 15 1014.4 - 0.0 - - 10 - - - -
29/01:00pm 26.4 NNW 6 10 1015.0 - 0.0 - - 10 - - - -
29/12:30pm 25.7 NW 10 13 1015.5 - 0.0 - - 10 - - - -
29/12:00pm 24.7 N 12 18 1016.2 - 0.0 - - 10 - - - -
29/11:30am 23.7 N 13 17 1016.7 - 0.0 - - 10 - - - -
29/11:00am 22.4 N 13 18 1017.1 - 0.0 - - 10 - - - -
29/10:30am 21.1 NNE 14 21 1017.4 - 0.0 - - 10 - - - -
29/10:00am 19.7 NNE 15 20 1017.6 - 0.0 - - 10 - - - -
29/09:30am 18.6 NNE 15 19 1017.7 - 0.0 - - 10 - - - -
29/09:00am 16.5 NNE 16 19 1017.8 - 0.0 - - 10 - - - -
29/08:30am 15.0 NNE 15 20 1017.8 - 0.0 - - 10 - - - -
29/08:00am 12.6 NNE 13 17 1017.7 - 0.0 - - 10 - - - -
29/07:30am 10.6 NNE 11 15 1017.6 - 0.0 - - 10 - - - -
29/07:00am 9.0 NNE 9 12 1017.0 - 0.0 - - 10 - - - -
29/06:37am 8.2 NNE 9 11 1016.7 - 0.0 - - 10 - - - -
29/06:30am 7.7 NNE 8 10 1016.5 - 0.0 - - 10 - - - -
29/06:00am 5.9 NNE 8 9 1016.1 - 0.0 - - 7 - - - -
29/05:30am 5.7 NNE 9 10 1015.8 - 0.0 - - 1 - - - -
29/05:00am 5.9 NE 7 7 1015.6 - 0.0 - - 0.8 - - - -
29/04:30am 5.6 E 5 6 1015.4 - 0.0 - - 0.6 - - - -

Other Formats:

Comma delimited format used in spreadsheet applications
http://www.bom.gov.au/fwo/IDS60701/IDS60701.94651.axf

JavaScript Object Notation format (JSON) in row-major order
http://www.bom.gov.au/fwo/IDS60701/IDS60701.94651.json